Gaiuut, Mongolia
Current Conditions -  °F | °C
As of 12:00 AM on Friday 24 Oct 2014 (Local Time) from ZMUB Reporting Station
Scattered Clouds Scattered Clouds  
Wind Chill: 30°   Ceiling: Unl
Heat Index: 30°   Visibility: 6mi
Dew Point: 23°   Wind: 2mph
Humidity: 75%   Direction: NA
Pressure: 29.77"   Gusts: NA
Location:  46.7°N, 100.13°E
Report Text: ZMUB 231600Z VRB01MPS 9999 SCT100 M01/M05 Q1008 NOSIG RMK QFE649.6 69 NT
Loading
Personal Weather Stations






























Interactive Weather Map
Tropical Storm Tracking
New forecast layout! Learn more

10-Day Weather Forecast

Advertisements
Track Severe Weather on mobile